createdAt,value
2019-03-31T00:00:33.565Z,7.90
2019-03-31T00:01:13.001Z,7.90
2019-03-31T00:01:53.507Z,7.90
2019-03-31T00:02:32.445Z,7.90
2019-03-31T00:03:11.517Z,7.90
2019-03-31T00:03:49.985Z,7.90
2019-03-31T00:04:28.738Z,7.90
2019-03-31T00:05:07.069Z,7.90
2019-03-31T00:05:45.375Z,7.90
2019-03-31T00:06:23.477Z,7.90
2019-03-31T00:07:01.877Z,7.90
2019-03-31T00:07:40.793Z,7.80
2019-03-31T00:08:24.889Z,7.80
2019-03-31T00:09:02.847Z,7.80
2019-03-31T00:09:41.118Z,7.80
2019-03-31T00:10:19.339Z,7.80
2019-03-31T00:11:00.464Z,7.80
2019-03-31T00:11:37.542Z,7.80
2019-03-31T00:12:15.953Z,7.80
2019-03-31T00:12:54.150Z,7.80
2019-03-31T00:13:31.905Z,7.80
2019-03-31T00:14:10.305Z,7.80
2019-03-31T00:14:48.606Z,7.70
2019-03-31T00:15:26.529Z,7.70
2019-03-31T00:16:04.920Z,7.70
2019-03-31T00:16:42.789Z,7.70
2019-03-31T00:17:21.165Z,7.70
2019-03-31T00:17:59.731Z,7.70
2019-03-31T00:18:37.987Z,7.70
2019-03-31T00:19:15.585Z,7.70
2019-03-31T00:19:53.760Z,7.70
2019-03-31T00:20:32.035Z,7.70
2019-03-31T00:21:10.392Z,7.70
2019-03-31T00:21:49.040Z,7.60
2019-03-31T00:22:26.984Z,7.60
2019-03-31T00:23:05.150Z,7.60
2019-03-31T00:23:43.421Z,7.60
2019-03-31T00:24:21.615Z,7.60
2019-03-31T00:25:00.025Z,7.60
2019-03-31T00:25:39.784Z,7.60
2019-03-31T00:26:18.089Z,7.60
2019-03-31T00:26:56.426Z,7.60
2019-03-31T00:27:34.135Z,7.60
2019-03-31T00:28:12.057Z,7.60
2019-03-31T00:28:50.012Z,7.60
2019-03-31T00:29:27.900Z,7.60
2019-03-31T00:30:11.650Z,7.60
2019-03-31T00:30:49.928Z,7.50
2019-03-31T00:31:27.938Z,7.50
2019-03-31T00:32:06.651Z,7.50
2019-03-31T00:32:44.652Z,7.50
2019-03-31T00:33:23.733Z,7.50
2019-03-31T00:34:02.015Z,7.50
2019-03-31T00:34:39.947Z,7.50
2019-03-31T00:35:18.145Z,7.50
2019-03-31T00:35:56.189Z,7.40
2019-03-31T00:36:34.503Z,7.40
2019-03-31T00:37:12.424Z,7.40
2019-03-31T00:37:51.012Z,7.40
2019-03-31T00:38:28.987Z,7.40
2019-03-31T00:39:08.782Z,7.40
2019-03-31T00:39:47.325Z,7.40
2019-03-31T00:40:25.330Z,7.40
2019-03-31T00:41:03.700Z,7.30
2019-03-31T00:41:42.365Z,7.30
2019-03-31T00:42:38.960Z,7.30
2019-03-31T00:43:16.562Z,7.30
2019-03-31T00:43:54.531Z,7.30
2019-03-31T00:44:32.238Z,7.30
2019-03-31T00:45:10.684Z,7.30
2019-03-31T00:45:49.021Z,7.30
2019-03-31T00:46:27.284Z,7.30
2019-03-31T00:47:05.531Z,7.30
2019-03-31T00:47:43.761Z,7.30
2019-03-31T00:48:22.107Z,7.30
2019-03-31T00:49:00.731Z,7.20
2019-03-31T00:49:38.951Z,7.20
2019-03-31T00:50:17.458Z,7.20
2019-03-31T00:50:56.025Z,7.20
2019-03-31T00:51:34.415Z,7.20
2019-03-31T00:52:12.719Z,7.20
2019-03-31T00:52:51.012Z,7.20
2019-03-31T00:53:29.339Z,7.10
2019-03-31T00:54:07.932Z,7.10
2019-03-31T00:54:46.529Z,7.10
2019-03-31T00:55:24.763Z,7.10
2019-03-31T00:56:03.138Z,7.10
2019-03-31T00:56:41.232Z,7.10
2019-03-31T00:57:19.523Z,7.10
2019-03-31T00:57:57.851Z,7.10
2019-03-31T00:58:36.359Z,7.10
2019-03-31T00:59:14.544Z,7.10
2019-03-31T00:59:52.112Z,7.00
2019-03-31T01:00:48.915Z,7.00
2019-03-31T01:01:36.687Z,7.00
2019-03-31T01:02:17.642Z,7.00
2019-03-31T01:02:56.120Z,7.00
2019-03-31T01:03:35.275Z,7.00
2019-03-31T01:04:13.720Z,7.00
2019-03-31T01:04:52.036Z,7.00
2019-03-31T01:05:30.489Z,7.00
2019-03-31T01:06:09.534Z,7.00
2019-03-31T01:06:51.672Z,6.90
2019-03-31T01:07:30.243Z,7.00
2019-03-31T01:08:08.215Z,7.00
2019-03-31T01:08:47.276Z,7.00
2019-03-31T01:09:32.332Z,6.90
2019-03-31T01:10:11.808Z,6.90
2019-03-31T01:10:50.213Z,6.90
2019-03-31T01:11:28.862Z,6.90
2019-03-31T01:12:06.919Z,6.90
2019-03-31T01:12:44.772Z,6.90
2019-03-31T01:13:22.753Z,6.90
2019-03-31T01:14:01.332Z,6.90
2019-03-31T01:14:39.390Z,6.90
2019-03-31T01:15:21.168Z,6.90
2019-03-31T01:15:59.767Z,6.90
2019-03-31T01:16:37.761Z,6.90
2019-03-31T01:17:18.854Z,6.80
2019-03-31T01:17:56.328Z,6.80
2019-03-31T01:18:35.043Z,6.80
2019-03-31T01:19:16.557Z,6.80
2019-03-31T01:19:55.213Z,6.80
2019-03-31T01:20:33.561Z,6.90
2019-03-31T01:21:11.964Z,6.90
2019-03-31T01:21:49.789Z,6.90
2019-03-31T01:22:28.246Z,6.90
2019-03-31T01:23:07.109Z,6.90
2019-03-31T01:23:48.294Z,6.90
2019-03-31T01:24:25.651Z,6.90
2019-03-31T01:25:04.441Z,6.90
2019-03-31T01:25:42.848Z,7.00
2019-03-31T01:26:22.411Z,7.00
2019-03-31T01:27:01.069Z,7.00
2019-03-31T01:27:39.720Z,7.10
2019-03-31T01:28:18.298Z,7.10
2019-03-31T01:28:56.177Z,7.10
2019-03-31T01:29:34.054Z,7.10
2019-03-31T01:30:13.247Z,7.10
2019-03-31T01:30:51.270Z,7.10
2019-03-31T01:31:29.788Z,7.20
2019-03-31T01:32:08.377Z,7.20
2019-03-31T01:32:46.903Z,7.20
2019-03-31T01:33:25.585Z,7.20
2019-03-31T01:34:03.572Z,7.20
2019-03-31T01:34:41.800Z,7.20
2019-03-31T01:35:20.652Z,7.20
2019-03-31T01:35:58.619Z,7.20
2019-03-31T01:36:36.972Z,7.20
2019-03-31T01:37:19.962Z,7.20
2019-03-31T01:37:57.276Z,7.30
2019-03-31T01:38:35.346Z,7.30
2019-03-31T01:39:13.059Z,7.30
2019-03-31T01:39:51.640Z,7.30
2019-03-31T01:40:30.240Z,7.30
2019-03-31T01:41:08.225Z,7.30
2019-03-31T01:41:46.019Z,7.30
2019-03-31T01:42:24.722Z,7.30
2019-03-31T01:43:02.614Z,7.30
2019-03-31T01:43:41.213Z,7.30
2019-03-31T01:44:19.850Z,7.30
2019-03-31T01:44:58.148Z,7.30
2019-03-31T01:45:36.664Z,7.30
2019-03-31T01:46:15.811Z,7.30
2019-03-31T01:46:53.936Z,7.30
2019-03-31T01:47:32.555Z,7.30
2019-03-31T01:48:10.473Z,7.40
2019-03-31T01:48:48.594Z,7.30
2019-03-31T01:49:27.268Z,7.40
2019-03-31T01:50:08.312Z,7.30
2019-03-31T01:50:47.012Z,7.40
2019-03-31T01:51:25.228Z,7.40
2019-03-31T01:52:03.820Z,7.30
2019-03-31T01:52:41.888Z,7.40
2019-03-31T01:53:20.006Z,7.30
2019-03-31T01:53:58.258Z,7.30
2019-03-31T01:54:36.445Z,7.30
2019-03-31T01:55:14.579Z,7.30
2019-03-31T01:55:52.788Z,7.30
2019-03-31T01:56:30.882Z,7.30
2019-03-31T01:57:09.482Z,7.30
2019-03-31T01:57:47.372Z,7.40
2019-03-31T01:58:25.918Z,7.40
2019-03-31T01:59:04.684Z,7.40
2019-03-31T01:59:42.995Z,7.40
2019-03-31T02:00:46.366Z,7.40
2019-03-31T02:01:24.914Z,7.40
2019-03-31T02:02:04.428Z,7.40
2019-03-31T02:02:43.232Z,7.30
2019-03-31T02:03:21.639Z,7.40
2019-03-31T02:03:59.731Z,7.30
2019-03-31T02:04:38.203Z,7.30
2019-03-31T02:05:16.380Z,7.40
2019-03-31T02:05:54.516Z,7.40
2019-03-31T02:06:32.990Z,7.30
2019-03-31T02:07:11.558Z,7.30
2019-03-31T02:07:49.900Z,7.30
2019-03-31T02:08:28.180Z,7.30
2019-03-31T02:09:07.579Z,7.30
2019-03-31T02:09:45.238Z,7.30
2019-03-31T02:10:23.214Z,7.30
2019-03-31T02:11:01.427Z,7.30
2019-03-31T02:11:39.993Z,7.30
2019-03-31T02:12:18.172Z,7.30
2019-03-31T02:12:56.585Z,7.30
2019-03-31T02:13:34.614Z,7.30
2019-03-31T02:14:16.056Z,7.30
2019-03-31T02:14:54.255Z,7.30
2019-03-31T02:15:32.938Z,7.30
2019-03-31T02:16:11.470Z,7.30
2019-03-31T02:16:50.074Z,7.30
2019-03-31T02:17:28.355Z,7.30
2019-03-31T02:18:06.810Z,7.30
2019-03-31T02:18:44.580Z,7.30
2019-03-31T02:19:22.764Z,7.30
2019-03-31T02:20:00.628Z,7.30
2019-03-31T02:20:38.603Z,7.30
2019-03-31T02:21:16.710Z,7.30
2019-03-31T02:21:54.836Z,7.30
2019-03-31T02:22:33.340Z,7.30
2019-03-31T02:23:11.292Z,7.30
2019-03-31T02:23:49.280Z,7.30
2019-03-31T02:24:27.590Z,7.30
2019-03-31T02:25:05.986Z,7.30
2019-03-31T02:25:44.340Z,7.20
2019-03-31T02:26:22.644Z,7.30
2019-03-31T02:27:01.373Z,7.30
2019-03-31T02:27:39.506Z,7.30
2019-03-31T02:28:18.050Z,7.30
2019-03-31T02:28:55.972Z,7.30
2019-03-31T02:29:33.978Z,7.30
2019-03-31T02:30:12.153Z,7.30
2019-03-31T02:30:50.486Z,7.30
2019-03-31T02:31:28.476Z,7.30
2019-03-31T02:32:22.512Z,7.30
2019-03-31T02:32:46.314Z,7.30
2019-03-31T02:33:24.682Z,7.30
2019-03-31T02:34:03.075Z,7.30
2019-03-31T02:34:41.076Z,7.30
2019-03-31T02:35:19.351Z,7.30
2019-03-31T02:35:57.047Z,7.30
2019-03-31T02:36:34.932Z,7.30
2019-03-31T02:37:13.132Z,7.30
2019-03-31T02:37:51.120Z,7.30
2019-03-31T02:38:29.446Z,7.30
2019-03-31T02:39:08.073Z,7.20
2019-03-31T02:39:46.224Z,7.30
2019-03-31T02:40:24.825Z,7.30
2019-03-31T02:41:03.533Z,7.30
2019-03-31T02:41:41.748Z,7.30
2019-03-31T02:42:19.992Z,7.30
2019-03-31T02:42:57.909Z,7.30
2019-03-31T02:43:35.913Z,7.30
2019-03-31T02:44:14.441Z,7.30
2019-03-31T02:44:52.693Z,7.30
2019-03-31T02:45:30.800Z,7.30
2019-03-31T02:46:08.768Z,7.30
2019-03-31T02:46:46.878Z,7.30
2019-03-31T02:47:30.605Z,7.30
2019-03-31T02:48:08.871Z,7.30
2019-03-31T02:48:47.108Z,7.30
2019-03-31T02:49:25.527Z,7.30
2019-03-31T02:50:03.525Z,7.30
2019-03-31T02:50:50.546Z,7.30
2019-03-31T02:51:29.300Z,7.30
2019-03-31T02:52:06.986Z,7.30
2019-03-31T02:52:45.740Z,7.30
2019-03-31T02:53:24.409Z,7.30
2019-03-31T02:54:03.135Z,7.30
2019-03-31T02:54:41.547Z,7.30
2019-03-31T02:55:20.516Z,7.30
2019-03-31T02:55:59.010Z,7.30
2019-03-31T02:56:38.245Z,7.30
2019-03-31T02:57:16.592Z,7.30
2019-03-31T02:57:55.587Z,7.30
2019-03-31T02:58:36.105Z,7.30
2019-03-31T02:59:16.208Z,7.30
2019-03-31T02:59:54.677Z,7.30
2019-03-31T03:00:33.355Z,7.30
2019-03-31T03:01:12.630Z,7.30
2019-03-31T03:01:51.435Z,7.30
2019-03-31T03:02:41.437Z,7.30
2019-03-31T03:03:14.212Z,7.30
2019-03-31T03:03:59.330Z,7.30
2019-03-31T03:04:48.798Z,7.30
2019-03-31T03:05:28.779Z,7.30
2019-03-31T03:06:26.338Z,7.30
2019-03-31T03:07:05.061Z,7.30
2019-03-31T03:07:46.461Z,7.30
2019-03-31T03:08:26.254Z,7.30
2019-03-31T03:09:06.544Z,7.30
2019-03-31T03:09:47.926Z,7.30
2019-03-31T03:10:27.805Z,7.30
2019-03-31T03:11:06.451Z,7.30
2019-03-31T03:11:46.942Z,7.30
2019-03-31T03:12:26.089Z,7.30
2019-03-31T03:13:06.168Z,7.30
2019-03-31T03:13:45.524Z,7.30
2019-03-31T03:14:27.204Z,7.30
2019-03-31T03:15:05.563Z,7.30
2019-03-31T03:16:15.033Z,7.30
2019-03-31T03:16:53.467Z,7.30
2019-03-31T03:17:31.859Z,7.30
2019-03-31T03:18:09.847Z,7.30
2019-03-31T03:18:48.412Z,7.30
2019-03-31T03:19:26.829Z,7.30
2019-03-31T03:20:05.753Z,7.30
2019-03-31T03:20:44.034Z,7.30
2019-03-31T03:21:24.531Z,7.30
2019-03-31T03:22:02.512Z,7.30
2019-03-31T03:22:40.875Z,7.30
2019-03-31T03:23:19.158Z,7.30
2019-03-31T03:23:57.198Z,7.30
2019-03-31T03:24:35.425Z,7.30
2019-03-31T03:25:13.449Z,7.30
2019-03-31T03:25:56.237Z,7.30
2019-03-31T03:26:31.640Z,7.30
2019-03-31T03:27:09.587Z,7.30
2019-03-31T03:27:47.561Z,7.30
2019-03-31T03:28:25.475Z,7.30
2019-03-31T03:29:03.784Z,7.30
2019-03-31T03:29:41.854Z,7.30
2019-03-31T03:30:20.229Z,7.30
2019-03-31T03:31:17.257Z,7.30
2019-03-31T03:31:55.745Z,7.30
2019-03-31T03:33:13.638Z,7.30
2019-03-31T03:33:32.321Z,7.30
2019-03-31T03:34:10.284Z,7.30
2019-03-31T03:34:48.337Z,7.30
2019-03-31T03:35:26.692Z,7.30
2019-03-31T03:36:05.253Z,7.30
2019-03-31T03:36:43.568Z,7.30
2019-03-31T03:37:21.728Z,7.30
2019-03-31T03:37:59.721Z,7.30
2019-03-31T03:38:38.019Z,7.30
2019-03-31T03:39:16.282Z,7.30
2019-03-31T03:39:54.265Z,7.30
2019-03-31T03:40:31.472Z,7.30
2019-03-31T03:41:09.707Z,7.30
2019-03-31T03:41:47.667Z,7.30
2019-03-31T03:42:26.201Z,7.30
2019-03-31T03:43:03.849Z,7.30
2019-03-31T03:43:55.238Z,7.30
2019-03-31T03:44:21.918Z,7.30
2019-03-31T03:45:00.428Z,7.30
2019-03-31T03:45:38.625Z,7.30
2019-03-31T03:46:16.777Z,7.30
2019-03-31T03:46:55.020Z,7.30
2019-03-31T03:47:33.603Z,7.30
2019-03-31T03:48:12.319Z,7.30
2019-03-31T03:48:50.035Z,7.30
2019-03-31T03:49:28.741Z,7.30
2019-03-31T03:50:06.449Z,7.30
2019-03-31T03:50:44.346Z,7.30
2019-03-31T03:51:22.900Z,7.30
2019-03-31T03:52:00.738Z,7.30
2019-03-31T03:52:39.035Z,7.30
2019-03-31T03:53:17.287Z,7.30
2019-03-31T03:53:55.558Z,7.30
2019-03-31T03:54:33.825Z,7.30
2019-03-31T03:55:12.481Z,7.30
2019-03-31T03:55:50.721Z,7.30
2019-03-31T03:56:29.334Z,7.30
2019-03-31T03:57:07.007Z,7.30
2019-03-31T03:57:45.264Z,7.30
2019-03-31T03:58:23.836Z,7.30
2019-03-31T03:59:01.808Z,7.30
2019-03-31T03:59:40.007Z,7.30
2019-03-31T04:00:18.750Z,7.30
2019-03-31T04:00:56.986Z,7.30
2019-03-31T04:01:34.938Z,7.30
2019-03-31T04:02:13.518Z,7.30
2019-03-31T04:02:52.125Z,7.30
2019-03-31T04:03:31.274Z,7.30
2019-03-31T04:04:09.580Z,7.30
2019-03-31T04:04:47.561Z,7.30
2019-03-31T04:05:26.170Z,7.30
2019-03-31T04:06:04.049Z,7.30
2019-03-31T04:06:41.937Z,7.30
2019-03-31T04:07:19.202Z,7.30
2019-03-31T04:07:57.714Z,7.30
2019-03-31T04:08:35.996Z,7.30
2019-03-31T04:09:13.939Z,7.30
2019-03-31T04:09:52.490Z,7.30
2019-03-31T04:11:09.672Z,7.30
2019-03-31T04:11:47.975Z,7.30
2019-03-31T04:12:26.325Z,7.30
2019-03-31T04:13:04.410Z,7.30
2019-03-31T04:13:42.045Z,7.30
2019-03-31T04:14:20.078Z,7.30
2019-03-31T04:14:58.058Z,7.30
2019-03-31T04:15:36.682Z,7.30
2019-03-31T04:16:14.819Z,7.30
2019-03-31T04:16:52.762Z,7.30
2019-03-31T04:17:30.338Z,7.30
2019-03-31T04:18:09.005Z,7.30
2019-03-31T04:18:50.033Z,7.30
2019-03-31T04:19:28.281Z,7.30
2019-03-31T04:20:07.181Z,7.30
2019-03-31T04:20:45.220Z,7.30
2019-03-31T04:21:23.606Z,7.30
2019-03-31T04:22:02.210Z,7.30
2019-03-31T04:22:40.099Z,7.30
2019-03-31T04:23:18.327Z,7.30
2019-03-31T04:23:56.930Z,7.30
2019-03-31T04:24:35.526Z,7.30
2019-03-31T04:25:13.475Z,7.30
2019-03-31T04:26:10.281Z,7.30
2019-03-31T04:26:48.664Z,7.30
2019-03-31T04:27:26.579Z,7.30
2019-03-31T04:28:04.466Z,7.30
2019-03-31T04:28:54.541Z,7.40
2019-03-31T04:29:32.857Z,7.30
2019-03-31T04:30:11.262Z,7.40
2019-03-31T04:30:48.533Z,7.40
2019-03-31T04:31:26.646Z,7.40
2019-03-31T04:32:05.153Z,7.40
2019-03-31T04:32:43.097Z,7.40
2019-03-31T04:33:21.062Z,7.40
2019-03-31T04:33:59.469Z,7.40
2019-03-31T04:34:37.805Z,7.40
2019-03-31T04:35:15.669Z,7.40
2019-03-31T04:35:54.201Z,7.40
2019-03-31T04:36:31.795Z,7.40
2019-03-31T04:37:10.001Z,7.40
2019-03-31T04:37:48.581Z,7.40
2019-03-31T04:38:26.927Z,7.40
2019-03-31T04:39:06.905Z,7.40
2019-03-31T04:39:45.209Z,7.40
2019-03-31T04:40:23.325Z,7.40
2019-03-31T04:41:01.932Z,7.40
2019-03-31T04:41:39.881Z,7.40
2019-03-31T04:42:17.884Z,7.40
2019-03-31T04:42:56.374Z,7.40
2019-03-31T04:43:34.620Z,7.40
2019-03-31T04:44:12.557Z,7.40
2019-03-31T04:44:50.868Z,7.40
2019-03-31T04:45:29.397Z,7.40
2019-03-31T04:46:07.165Z,7.40
2019-03-31T04:46:45.145Z,7.40
2019-03-31T04:47:23.467Z,7.40
2019-03-31T04:48:01.418Z,7.40
2019-03-31T04:48:39.065Z,7.40
2019-03-31T04:49:17.001Z,7.40
2019-03-31T04:49:55.005Z,7.40
2019-03-31T04:50:33.630Z,7.40
2019-03-31T04:51:11.557Z,7.40
2019-03-31T04:51:49.167Z,7.40
2019-03-31T04:52:27.394Z,7.40
2019-03-31T04:53:05.898Z,7.40
2019-03-31T04:53:44.178Z,7.40
2019-03-31T04:54:22.359Z,7.40
2019-03-31T04:55:00.601Z,7.50
2019-03-31T04:55:38.487Z,7.50
2019-03-31T04:56:16.549Z,7.50
2019-03-31T04:56:53.981Z,7.50
2019-03-31T04:57:32.325Z,7.50
2019-03-31T04:58:10.821Z,7.50
2019-03-31T04:58:48.708Z,7.50
2019-03-31T04:59:26.943Z,7.50
2019-03-31T05:00:05.405Z,7.50
2019-03-31T05:00:43.647Z,7.50
2019-03-31T05:01:21.679Z,7.50
2019-03-31T05:02:00.249Z,7.50
2019-03-31T05:02:38.797Z,7.50
2019-03-31T05:03:16.793Z,7.50
2019-03-31T05:04:04.423Z,7.50
2019-03-31T05:04:35.133Z,7.50
2019-03-31T05:05:13.459Z,7.50
2019-03-31T05:05:51.790Z,7.50
2019-03-31T05:06:30.469Z,7.50
2019-03-31T05:07:08.767Z,7.50
2019-03-31T05:07:47.535Z,7.50
2019-03-31T05:08:25.833Z,7.50
2019-03-31T05:09:05.595Z,7.50
2019-03-31T05:09:44.162Z,7.50
2019-03-31T05:10:22.423Z,7.50
2019-03-31T05:11:00.404Z,7.50
2019-03-31T05:11:37.989Z,7.50
2019-03-31T05:12:16.996Z,7.50
2019-03-31T05:12:55.697Z,7.50
2019-03-31T05:13:33.976Z,7.50
2019-03-31T05:14:12.509Z,7.50
2019-03-31T05:14:51.009Z,7.50
2019-03-31T05:15:28.307Z,7.50
2019-03-31T05:16:06.689Z,7.50
2019-03-31T05:16:44.523Z,7.50
2019-03-31T05:17:41.695Z,7.50
2019-03-31T05:18:20.008Z,7.50
2019-03-31T05:18:57.958Z,7.50
2019-03-31T05:19:35.949Z,7.50
2019-03-31T05:20:14.585Z,7.50
2019-03-31T05:20:52.449Z,7.50
2019-03-31T05:21:30.709Z,7.50
2019-03-31T05:22:08.805Z,7.50
2019-03-31T05:22:47.592Z,7.50
2019-03-31T05:23:25.880Z,7.50
2019-03-31T05:24:04.678Z,7.50
2019-03-31T05:24:43.116Z,7.50
2019-03-31T05:25:21.789Z,7.50
2019-03-31T05:26:00.134Z,7.50
2019-03-31T05:26:38.253Z,7.50
2019-03-31T05:27:16.653Z,7.50
2019-03-31T05:27:55.709Z,7.50
2019-03-31T05:28:34.283Z,7.50
2019-03-31T05:29:12.910Z,7.50
2019-03-31T05:29:51.509Z,7.50
2019-03-31T05:30:29.883Z,7.60
2019-03-31T05:31:08.051Z,7.60
2019-03-31T05:31:46.725Z,7.60
2019-03-31T05:32:24.351Z,7.60
2019-03-31T05:33:02.052Z,7.60
2019-03-31T05:33:40.387Z,7.60
2019-03-31T05:34:19.544Z,7.60
2019-03-31T05:34:57.766Z,7.70
2019-03-31T05:35:35.979Z,7.70
2019-03-31T05:36:13.957Z,7.70
2019-03-31T05:36:52.508Z,7.70
2019-03-31T05:37:30.860Z,7.70
2019-03-31T05:38:09.123Z,7.70
2019-03-31T05:38:48.757Z,7.70
2019-03-31T05:39:27.117Z,7.70
2019-03-31T05:40:05.620Z,7.80
2019-03-31T05:40:43.651Z,7.80
2019-03-31T05:41:21.971Z,7.80
2019-03-31T05:42:00.273Z,7.80
2019-03-31T05:42:38.540Z,7.80
2019-03-31T05:43:18.973Z,7.80
2019-03-31T05:44:05.654Z,7.80
2019-03-31T05:44:38.161Z,7.80
2019-03-31T05:45:16.625Z,7.90
2019-03-31T05:45:56.516Z,7.90
2019-03-31T05:46:34.750Z,7.90
2019-03-31T05:47:12.979Z,7.80
2019-03-31T05:47:51.589Z,7.90
2019-03-31T05:48:30.312Z,7.80
2019-03-31T05:49:08.681Z,7.80
2019-03-31T05:49:46.391Z,7.90
2019-03-31T05:50:24.595Z,7.90
2019-03-31T05:51:02.943Z,7.90
2019-03-31T05:51:41.447Z,7.90
2019-03-31T05:52:20.033Z,7.90
2019-03-31T05:52:57.983Z,7.90
2019-03-31T05:53:36.289Z,7.90
2019-03-31T05:54:14.577Z,7.90
2019-03-31T05:54:52.567Z,7.90
2019-03-31T05:55:30.998Z,7.90
2019-03-31T05:56:09.300Z,7.90
2019-03-31T05:56:47.642Z,7.90
2019-03-31T05:57:25.931Z,7.90
2019-03-31T05:58:03.965Z,7.90
2019-03-31T05:58:42.057Z,7.90
2019-03-31T05:59:20.515Z,7.90
2019-03-31T05:59:58.935Z,7.90
2019-03-31T06:00:40.285Z,7.90
2019-03-31T06:01:18.905Z,7.90
2019-03-31T06:01:57.167Z,7.80
2019-03-31T06:02:35.735Z,7.80
2019-03-31T06:03:14.331Z,7.80
2019-03-31T06:03:52.230Z,7.80
2019-03-31T06:04:33.329Z,7.70
2019-03-31T06:05:10.133Z,7.70
2019-03-31T06:05:48.299Z,7.70
2019-03-31T06:06:26.335Z,7.70
2019-03-31T06:07:05.052Z,7.70
2019-03-31T06:07:43.795Z,7.70
2019-03-31T06:08:22.311Z,7.60
2019-03-31T06:09:00.349Z,7.60
2019-03-31T06:09:38.659Z,7.60
2019-03-31T06:10:16.865Z,7.60
2019-03-31T06:10:55.089Z,7.60
2019-03-31T06:11:33.034Z,7.70
2019-03-31T06:12:10.940Z,7.70
2019-03-31T06:12:49.007Z,7.70
2019-03-31T06:13:26.849Z,7.70
2019-03-31T06:14:05.197Z,7.70
2019-03-31T06:14:43.493Z,7.70
2019-03-31T06:15:21.918Z,7.70
2019-03-31T06:16:00.388Z,7.70
2019-03-31T06:16:37.983Z,7.70
2019-03-31T06:17:16.503Z,7.80
2019-03-31T06:17:54.374Z,7.80
2019-03-31T06:18:32.625Z,7.80
2019-03-31T06:19:11.187Z,7.80
2019-03-31T06:19:49.326Z,7.80
2019-03-31T06:20:27.319Z,7.80
2019-03-31T06:21:06.115Z,7.80
2019-03-31T06:21:44.403Z,7.90
2019-03-31T06:22:22.358Z,7.90
2019-03-31T06:23:00.350Z,7.90
2019-03-31T06:23:38.616Z,7.90
2019-03-31T06:24:17.251Z,8.00
2019-03-31T06:24:55.667Z,8.00
2019-03-31T06:25:33.742Z,8.00
2019-03-31T06:26:12.299Z,8.10
2019-03-31T06:26:49.875Z,8.10
2019-03-31T06:27:27.763Z,8.10
2019-03-31T06:28:06.087Z,8.10
2019-03-31T06:28:47.173Z,8.10
2019-03-31T06:29:24.779Z,8.20
2019-03-31T06:30:02.849Z,8.20
2019-03-31T06:30:41.576Z,8.20
2019-03-31T06:31:20.160Z,8.20
2019-03-31T06:31:57.857Z,8.30
2019-03-31T06:32:36.390Z,8.30
2019-03-31T06:33:14.650Z,8.30
2019-03-31T06:33:53.047Z,8.30
2019-03-31T06:34:30.576Z,8.40
2019-03-31T06:35:08.769Z,8.40
2019-03-31T06:35:47.258Z,8.40
2019-03-31T06:36:26.277Z,8.40
2019-03-31T06:37:04.470Z,8.50
2019-03-31T06:37:42.707Z,8.50
2019-03-31T06:38:21.007Z,8.50
2019-03-31T06:38:59.203Z,8.60
2019-03-31T06:39:37.524Z,8.60
2019-03-31T06:40:15.956Z,8.60
2019-03-31T06:40:54.787Z,8.60
2019-03-31T06:41:33.027Z,8.60
2019-03-31T06:42:10.604Z,8.60
2019-03-31T06:42:48.534Z,8.60
2019-03-31T06:43:26.133Z,8.60
2019-03-31T06:44:04.793Z,8.60
2019-03-31T06:44:43.244Z,8.60
2019-03-31T06:45:21.600Z,8.60
2019-03-31T06:45:59.700Z,8.60
2019-03-31T06:46:37.839Z,8.60
2019-03-31T06:47:16.313Z,8.70
2019-03-31T06:47:54.204Z,8.70
2019-03-31T06:48:32.537Z,8.70
2019-03-31T06:49:11.105Z,8.70
2019-03-31T06:49:49.887Z,8.70
2019-03-31T06:50:27.866Z,8.70
2019-03-31T06:51:06.505Z,8.70
2019-03-31T06:51:44.835Z,8.70
2019-03-31T06:52:23.044Z,8.70
2019-03-31T06:53:02.596Z,8.60
2019-03-31T06:53:40.794Z,8.50
2019-03-31T06:54:19.159Z,8.50
2019-03-31T06:54:57.561Z,8.50
2019-03-31T06:55:35.990Z,8.50
2019-03-31T06:56:14.531Z,8.50
2019-03-31T06:56:52.711Z,8.50
2019-03-31T06:57:31.392Z,8.60
2019-03-31T06:58:10.100Z,8.70
2019-03-31T06:58:47.879Z,8.70
2019-03-31T06:59:26.136Z,8.80
2019-03-31T07:00:04.049Z,8.80
2019-03-31T07:00:42.611Z,8.90
2019-03-31T07:01:21.206Z,8.90
2019-03-31T07:02:02.753Z,8.90
2019-03-31T07:02:39.719Z,9.00
2019-03-31T07:03:17.998Z,8.90
2019-03-31T07:03:56.219Z,9.00
2019-03-31T07:04:35.031Z,9.00
2019-03-31T07:05:13.529Z,9.00
2019-03-31T07:05:52.021Z,9.00
2019-03-31T07:06:30.071Z,9.00
2019-03-31T07:07:08.362Z,9.00
2019-03-31T07:07:46.744Z,9.00
2019-03-31T07:08:25.347Z,9.00
2019-03-31T07:09:05.644Z,9.00
2019-03-31T07:09:43.995Z,9.00
2019-03-31T07:10:22.011Z,8.90
2019-03-31T07:11:00.635Z,8.90
2019-03-31T07:11:39.141Z,8.90
2019-03-31T07:12:17.110Z,8.90
2019-03-31T07:12:55.378Z,8.90
2019-03-31T07:13:33.585Z,8.90
2019-03-31T07:14:11.658Z,8.90
2019-03-31T07:14:49.951Z,8.90
2019-03-31T07:15:28.519Z,9.00
2019-03-31T07:16:07.383Z,9.00
2019-03-31T07:16:45.658Z,9.00
2019-03-31T07:17:24.060Z,9.00
2019-03-31T07:18:02.378Z,8.90
2019-03-31T07:18:40.672Z,8.90
2019-03-31T07:19:18.764Z,8.80
2019-03-31T07:19:57.026Z,8.80
2019-03-31T07:20:35.450Z,8.70
2019-03-31T07:21:14.054Z,8.60
2019-03-31T07:21:52.471Z,8.60
2019-03-31T07:22:31.135Z,8.50
2019-03-31T07:23:09.374Z,8.50
2019-03-31T07:23:47.684Z,8.50
2019-03-31T07:24:25.971Z,8.40
2019-03-31T07:25:04.146Z,8.30
2019-03-31T07:25:42.147Z,8.30
2019-03-31T07:26:20.671Z,8.20
2019-03-31T07:26:59.447Z,8.20
2019-03-31T07:27:37.439Z,8.10
2019-03-31T07:28:15.344Z,8.10
2019-03-31T07:28:53.544Z,8.10
2019-03-31T07:29:32.053Z,8.10
2019-03-31T07:30:11.147Z,8.20
2019-03-31T07:30:49.853Z,8.20
2019-03-31T07:31:27.894Z,8.20
2019-03-31T07:32:06.391Z,8.30
2019-03-31T07:32:44.951Z,8.30
2019-03-31T07:33:23.097Z,8.40
2019-03-31T07:34:01.515Z,8.40
2019-03-31T07:34:39.480Z,8.50
2019-03-31T07:35:18.698Z,8.50
2019-03-31T07:35:57.052Z,8.50
2019-03-31T07:36:35.399Z,8.60
2019-03-31T07:37:13.915Z,8.60
2019-03-31T07:37:52.271Z,8.70
2019-03-31T07:38:38.928Z,8.70
2019-03-31T07:39:10.070Z,8.70
2019-03-31T07:39:48.954Z,8.80
2019-03-31T07:40:27.635Z,8.80
2019-03-31T07:41:12.581Z,8.90
2019-03-31T07:41:45.542Z,8.90
2019-03-31T07:42:24.047Z,8.90
2019-03-31T07:43:01.845Z,8.90
2019-03-31T07:43:40.131Z,9.00
2019-03-31T07:44:18.721Z,9.00
2019-03-31T07:44:57.149Z,9.00
2019-03-31T07:45:35.414Z,9.00
2019-03-31T07:46:13.828Z,9.00
2019-03-31T07:46:52.388Z,9.00
2019-03-31T07:47:30.708Z,9.00
2019-03-31T07:48:09.081Z,9.10
2019-03-31T07:48:47.458Z,9.10
2019-03-31T07:49:28.668Z,9.20
2019-03-31T07:50:09.356Z,9.20
2019-03-31T07:50:47.726Z,9.20
2019-03-31T07:51:26.532Z,9.30
2019-03-31T07:52:05.007Z,9.30
2019-03-31T07:52:43.148Z,9.20
2019-03-31T07:53:21.380Z,9.20
2019-03-31T07:53:59.454Z,9.10
2019-03-31T07:54:38.224Z,9.10
2019-03-31T07:55:17.108Z,9.20
2019-03-31T07:55:54.639Z,9.20
2019-03-31T07:56:44.550Z,9.20
2019-03-31T07:57:22.764Z,9.30
2019-03-31T07:58:00.907Z,9.30
2019-03-31T07:58:39.301Z,9.40
2019-03-31T07:59:17.921Z,9.40
2019-03-31T07:59:56.692Z,9.40
2019-03-31T08:00:35.046Z,9.40
2019-03-31T08:01:13.288Z,9.40
2019-03-31T08:01:51.516Z,9.30
2019-03-31T08:02:29.836Z,9.30
2019-03-31T08:03:07.872Z,9.20
2019-03-31T08:03:45.145Z,9.20
2019-03-31T08:04:23.496Z,9.20
2019-03-31T08:05:01.924Z,9.20
2019-03-31T08:05:40.282Z,9.20
2019-03-31T08:06:18.813Z,9.20
2019-03-31T08:06:57.615Z,9.20
2019-03-31T08:07:44.068Z,9.20
2019-03-31T08:08:22.639Z,9.10
2019-03-31T08:09:00.302Z,9.10
2019-03-31T08:09:38.811Z,9.10
2019-03-31T08:10:18.696Z,9.10
2019-03-31T08:10:57.114Z,9.10
2019-03-31T08:11:35.610Z,9.10
2019-03-31T08:12:13.866Z,9.10
2019-03-31T08:12:51.996Z,9.00
2019-03-31T08:13:29.745Z,8.90
2019-03-31T08:14:07.821Z,9.00
2019-03-31T08:14:45.968Z,8.90
2019-03-31T08:15:27.638Z,8.90
2019-03-31T08:16:11.901Z,8.90
2019-03-31T08:16:50.298Z,8.90
2019-03-31T08:17:28.522Z,8.90
2019-03-31T08:18:31.286Z,8.90
2019-03-31T08:19:27.885Z,8.90
2019-03-31T08:20:07.845Z,8.90
2019-03-31T08:20:45.797Z,8.90
2019-03-31T08:21:24.570Z,9.00
2019-03-31T08:22:03.017Z,8.90
2019-03-31T08:22:41.327Z,8.90
2019-03-31T08:23:20.074Z,8.90
2019-03-31T08:23:58.420Z,8.90
2019-03-31T08:24:45.928Z,8.90
2019-03-31T08:25:24.212Z,8.90
2019-03-31T08:26:01.909Z,8.90
2019-03-31T08:26:40.560Z,9.00
2019-03-31T08:27:19.350Z,9.00
2019-03-31T08:27:57.831Z,9.00
2019-03-31T08:28:36.488Z,9.10
2019-03-31T08:29:14.578Z,9.10
2019-03-31T08:30:00.508Z,9.20
2019-03-31T08:30:32.995Z,9.10
2019-03-31T08:31:11.580Z,9.10
2019-03-31T08:31:49.622Z,9.00
2019-03-31T08:32:28.514Z,9.00
2019-03-31T08:33:07.360Z,9.00
2019-03-31T08:33:46.051Z,9.10
2019-03-31T08:34:24.606Z,9.10
2019-03-31T08:35:02.588Z,9.10
2019-03-31T08:35:47.195Z,9.10
2019-03-31T08:36:20.734Z,9.20
2019-03-31T08:36:58.867Z,9.20
2019-03-31T08:37:37.552Z,9.30
2019-03-31T08:38:15.360Z,9.30